Time;durP1;ratioP1;P1;durP2;ratioP2;P2;SDS_P1;SDS_P2;PMS_P1;PMS_P2;Temp;Humidity;BMP_temperature;BMP_pressure;BME280_temperature;BME280_humidity;BME280_pressure;Samples;Min_cycle;Max_cycle;Signal;HPM_P1;HPM_P2
2023/06/24 00:02:50;;;;;;;28.67;22.48;;;;;;;20.80;98.00;97578.06;10369713;28;20039;-50
2023/06/24 00:07:50;;;;;;;30.23;23.20;;;;;;;20.78;97.98;97564.09;10370109;28;20130;-50
2023/06/24 00:12:49;;;;;;;26.92;21.90;;;;;;;20.76;97.89;97561.50;10371241;28;20165;-50
2023/06/24 00:17:48;;;;;;;29.73;22.60;;;;;;;20.58;98.11;97530.69;10369913;28;20124;-49
2023/06/24 00:22:48;;;;;;;26.40;20.75;;;;;;;20.65;98.41;97558.50;10370068;28;20090;-48
2023/06/24 00:27:47;;;;;;;28.27;21.25;;;;;;;20.48;99.02;97568.00;10370577;28;20091;-50
2023/06/24 00:32:46;;;;;;;28.55;21.52;;;;;;;20.27;99.84;97564.47;10369084;28;20037;-51
2023/06/24 00:37:46;;;;;;;27.77;22.73;;;;;;;20.27;99.60;97568.91;10369273;28;20032;-49
2023/06/24 00:42:46;;;;;;;29.65;22.88;;;;;;;20.19;99.71;97556.06;10370528;28;20072;-49
2023/06/24 00:47:45;;;;;;;31.60;24.05;;;;;;;20.19;99.37;97549.91;10369105;28;20543;-48
2023/06/24 00:52:44;;;;;;;34.17;25.50;;;;;;;20.21;98.92;97545.44;10369417;28;20072;-50
2023/06/24 00:57:45;;;;;;;33.15;26.85;;;;;;;20.18;99.05;97545.59;10375264;28;20024;-51
2023/06/24 01:02:47;;;;;;;32.80;26.88;;;;;;;20.13;98.76;97532.59;10409359;28;20079;-51
2023/06/24 01:07:54;;;;;;;33.13;27.23;;;;;;;20.19;98.73;97545.53;10408653;28;20080;-48
2023/06/24 01:12:53;;;;;;;33.53;27.15;;;;;;;20.15;99.14;97545.72;10371945;28;20100;-51
2023/06/24 01:18:10;;;;;;;33.08;24.80;;;;;;;20.22;99.07;97544.53;10378412;28;20033;-49
2023/06/24 01:23:38;;;;;;;31.30;25.20;;;;;;;20.22;98.96;97550.66;10412973;28;20482;-48
2023/06/24 01:29:07;;;;;;;31.88;24.73;;;;;;;20.21;98.93;97543.69;10367433;28;20531;-49
2023/06/24 01:34:12;;;;;;;37.13;27.35;;;;;;;20.19;98.86;97540.25;10411920;28;20071;-49
2023/06/24 01:39:16;;;;;;;35.78;26.23;;;;;;;20.13;99.24;97529.97;10411124;28;20459;-48
2023/06/24 01:44:16;;;;;;;33.58;25.25;;;;;;;20.04;99.99;97540.91;10411286;28;20082;-48
2023/06/24 01:49:17;;;;;;;35.17;26.20;;;;;;;20.03;100.00;97531.31;10411876;28;20063;-49
2023/06/24 01:54:19;;;;;;;37.65;27.70;;;;;;;19.89;100.00;97528.41;10370179;28;20079;-51
2023/06/24 01:59:20;;;;;;;33.45;25.92;;;;;;;19.85;100.00;97531.16;10390850;28;20515;-49
2023/06/24 02:04:21;;;;;;;37.80;27.38;;;;;;;19.65;100.00;97495.13;10411125;28;20484;-49
2023/06/24 02:09:21;;;;;;;29.95;23.75;;;;;;;19.78;100.00;97534.09;10409541;28;20056;-50
2023/06/24 02:14:20;;;;;;;35.75;26.55;;;;;;;19.70;100.00;97525.66;10406775;28;20083;-49
2023/06/24 02:19:20;;;;;;;36.50;26.35;;;;;;;19.72;100.00;97529.09;10388903;28;20129;-49
2023/06/24 02:24:20;;;;;;;36.65;26.75;;;;;;;19.40;100.00;97489.13;10365449;28;20514;-48
2023/06/24 02:29:21;;;;;;;38.10;26.77;;;;;;;19.64;100.00;97542.56;10365144;28;20076;-48
2023/06/24 02:34:20;;;;;;;37.45;28.88;;;;;;;19.60;100.00;97547.13;10404920;28;20092;-49
2023/06/24 02:39:19;;;;;;;38.05;26.30;;;;;;;19.57;99.90;97565.66;10405705;28;20076;-48
2023/06/24 02:44:18;;;;;;;40.13;27.08;;;;;;;19.45;100.00;97588.00;10406822;28;20063;-50
2023/06/24 02:49:19;;;;;;;29.83;23.00;;;;;;;19.37;100.00;97581.34;10406573;28;20025;-51
2023/06/24 02:54:18;;;;;;;26.42;18.33;;;;;;;19.29;98.25;97589.53;10405983;28;20072;-50
2023/06/24 02:59:17;;;;;;;24.27;18.02;;;;;;;19.22;97.55;97593.31;10385336;28;20185;-50
2023/06/24 03:04:18;;;;;;;24.92;18.60;;;;;;;19.32;97.13;97609.59;10365700;28;20085;-51
2023/06/24 03:09:18;;;;;;;26.73;20.40;;;;;;;19.14;97.97;97621.69;10403038;28;20068;-48
2023/06/24 03:14:17;;;;;;;34.78;21.92;;;;;;;19.10;98.67;97635.88;10368072;28;20132;-48
2023/06/24 03:19:16;;;;;;;30.33;22.25;;;;;;;19.19;98.67;97646.06;10365614;28;20052;-49
2023/06/24 03:24:15;;;;;;;27.85;23.00;;;;;;;19.23;98.70;97639.78;10409656;28;20056;-50
2023/06/24 03:29:13;;;;;;;31.70;24.73;;;;;;;19.11;98.70;97603.38;10378149;28;20502;-50
2023/06/24 03:34:13;;;;;;;28.73;23.38;;;;;;;19.52;98.42;97653.59;10409011;28;20090;-48
2023/06/24 03:39:12;;;;;;;31.55;23.05;;;;;;;19.64;98.10;97653.13;10376314;28;20125;-50
2023/06/24 03:44:12;;;;;;;26.55;22.70;;;;;;;19.69;97.17;97656.44;10407974;28;20072;-51
2023/06/24 03:49:10;;;;;;;28.63;20.90;;;;;;;19.72;96.95;97645.81;10377688;28;20124;-50
2023/06/24 03:54:10;;;;;;;29.38;22.92;;;;;;;19.79;97.53;97656.94;10406033;28;20039;-48
2023/06/24 03:59:08;;;;;;;30.35;21.42;;;;;;;19.93;97.20;97659.00;10396580;28;20131;-48
2023/06/24 04:04:07;;;;;;;28.23;21.70;;;;;;;20.13;97.11;97656.44;10380492;28;20048;-51
2023/06/24 04:09:08;;;;;;;27.35;20.60;;;;;;;20.35;96.47;97647.63;10404061;28;20547;-49
2023/06/24 04:14:09;;;;;;;28.65;22.13;;;;;;;20.54;95.46;97645.97;10381446;28;20072;-52
2023/06/24 04:19:08;;;;;;;25.98;19.95;;;;;;;20.35;94.04;97623.91;10393140;28;20480;-51
2023/06/24 04:24:07;;;;;;;25.85;20.52;;;;;;;20.74;93.21;97652.16;10376083;28;21558;-48
2023/06/24 04:29:05;;;;;;;23.20;20.67;;;;;;;20.97;92.49;97649.34;10404887;28;20033;-48
2023/06/24 04:34:05;;;;;;;24.20;20.20;;;;;;;21.18;91.81;97654.59;10381221;28;20124;-50
2023/06/24 04:39:04;;;;;;;24.35;19.42;;;;;;;21.41;91.08;97653.59;10404190;28;20100;-49
2023/06/24 04:44:03;;;;;;;28.33;20.50;;;;;;;21.48;90.02;97642.66;10383184;28;20543;-49
2023/06/24 04:49:02;;;;;;;25.88;19.92;;;;;;;21.70;89.08;97657.47;10372836;28;20111;-49
2023/06/24 04:54:01;;;;;;;37.72;21.48;;;;;;;21.65;89.10;97675.34;10403078;28;20032;-51
2023/06/24 04:59:01;;;;;;;37.83;24.17;;;;;;;21.94;89.74;97680.09;10403434;28;20133;-49
2023/06/24 05:04:00;;;;;;;32.17;22.73;;;;;;;22.06;90.12;97677.81;10383929;28;20063;-51
2023/06/24 05:08:59;;;;;;;35.13;22.33;;;;;;;22.28;89.78;97659.13;10401391;28;20044;-51
2023/06/24 05:13:58;;;;;;;29.42;19.27;;;;;;;22.39;88.65;97655.00;10380988;28;20563;-48
2023/06/24 05:18:57;;;;;;;26.40;19.83;;;;;;;22.49;88.70;97643.97;10375794;28;20478;-50
2023/06/24 05:23:56;;;;;;;31.48;20.38;;;;;;;22.45;87.01;97648.53;10375576;28;20049;-51
2023/06/24 05:28:54;;;;;;;29.15;21.52;;;;;;;22.45;86.86;97647.69;10393923;28;20103;-51
2023/06/24 05:33:53;;;;;;;27.55;18.92;;;;;;;22.44;87.80;97652.13;10380540;28;20020;-50
2023/06/24 05:38:52;;;;;;;22.92;19.92;;;;;;;22.55;87.76;97648.91;10390638;28;20038;-50
2023/06/24 05:44:07;;;;;;;23.23;19.48;;;;;;;22.71;86.54;97641.91;10346424;28;20127;-51
2023/06/24 05:49:06;;;;;;;22.75;19.10;;;;;;;22.78;86.03;97640.69;10382502;28;20119;-52
2023/06/24 05:54:05;;;;;;;26.38;18.60;;;;;;;23.06;84.23;97638.38;10369322;28;20124;-50
2023/06/24 05:59:04;;;;;;;21.70;17.73;;;;;;;23.30;82.53;97636.19;10374217;28;20048;-51
2023/06/24 06:04:03;;;;;;;27.05;18.48;;;;;;;23.63;82.07;97639.69;10373656;28;20564;-49
2023/06/24 06:09:02;;;;;;;22.80;16.83;;;;;;;23.64;82.83;97641.38;10385219;28;20120;-50
2023/06/24 06:14:01;;;;;;;25.55;17.17;;;;;;;23.98;81.71;97644.78;10391978;28;20079;-49
2023/06/24 06:19:00;;;;;;;21.67;17.02;;;;;;;24.19;79.26;97632.13;10385769;28;20036;-51
2023/06/24 06:23:59;;;;;;;23.65;17.60;;;;;;;24.39;75.75;97633.59;10379327;28;20052;-52
2023/06/24 06:28:59;;;;;;;21.60;17.25;;;;;;;24.76;74.90;97636.72;10388740;28;20049;-51
2023/06/24 06:33:59;;;;;;;26.42;16.30;;;;;;;25.01;72.06;97644.06;10383474;28;20468;-51
2023/06/24 06:38:58;;;;;;;19.05;15.57;;;;;;;25.20;69.48;97630.50;10383262;28;20115;-51
2023/06/24 06:43:57;;;;;;;20.52;16.65;;;;;;;25.29;68.77;97627.28;10375055;28;20514;-49
2023/06/24 06:48:56;;;;;;;20.38;16.80;;;;;;;25.26;69.19;97630.13;10376956;28;20483;-48
2023/06/24 06:53:55;;;;;;;21.48;16.70;;;;;;;25.44;67.75;97633.41;10388207;28;20076;-50
2023/06/24 06:58:54;;;;;;;17.48;15.68;;;;;;;25.64;66.38;97629.50;10391047;28;20035;-49
2023/06/24 07:03:53;;;;;;;17.85;15.38;;;;;;;25.83;65.67;97638.97;10384716;28;20044;-51
2023/06/24 07:08:52;;;;;;;18.40;15.30;;;;;;;26.09;63.57;97627.50;10381626;28;20032;-50
2023/06/24 07:13:51;;;;;;;17.52;15.65;;;;;;;26.32;61.98;97614.47;10391464;28;20131;-50
2023/06/24 07:18:50;;;;;;;17.33;14.82;;;;;;;26.65;62.23;97616.69;10389765;28;20175;-49
2023/06/24 07:23:49;;;;;;;19.88;13.93;;;;;;;27.01;60.41;97638.22;10388350;28;20036;-50
2023/06/24 07:28:48;;;;;;;20.15;15.00;;;;;;;27.34;59.29;97637.66;10395668;28;20031;-49
2023/06/24 07:33:47;;;;;;;17.10;14.15;;;;;;;27.43;57.97;97631.66;10389631;28;20056;-48
2023/06/24 07:38:46;;;;;;;19.23;14.43;;;;;;;27.74;56.70;97627.66;10388373;28;20028;-50
2023/06/24 07:43:45;;;;;;;18.88;14.30;;;;;;;27.93;54.83;97621.81;10379834;28;20029;-51
2023/06/24 07:48:44;;;;;;;17.20;15.13;;;;;;;28.10;53.51;97617.94;10390480;28;20542;-49
2023/06/24 07:53:43;;;;;;;15.95;14.30;;;;;;;28.13;53.00;97625.72;10383748;28;20507;-50
2023/06/24 07:58:42;;;;;;;15.73;14.00;;;;;;;28.32;53.43;97625.19;10376463;28;20036;-50
2023/06/24 08:03:40;;;;;;;16.67;13.88;;;;;;;28.29;51.53;97622.75;10389436;28;20103;-49
2023/06/24 08:08:39;;;;;;;17.98;14.07;;;;;;;28.40;52.48;97625.44;10376684;28;20466;-49
2023/06/24 08:13:39;;;;;;;15.15;13.55;;;;;;;28.48;50.41;97624.88;10382251;28;20037;-52
2023/06/24 08:18:39;;;;;;;19.02;14.13;;;;;;;28.73;50.32;97617.69;10381362;28;20080;-52
2023/06/24 08:23:38;;;;;;;17.58;14.38;;;;;;;28.75;50.75;97623.75;10388993;28;20119;-51
2023/06/24 08:28:37;;;;;;;16.63;14.00;;;;;;;28.78;50.12;97629.72;10388286;28;20067;-49
2023/06/24 08:33:36;;;;;;;18.48;13.50;;;;;;;28.89;49.44;97623.53;10390580;28;20029;-52
2023/06/24 08:38:35;;;;;;;14.90;13.02;;;;;;;29.02;48.83;97623.44;10387490;28;20039;-52
2023/06/24 08:43:34;;;;;;;15.52;13.25;;;;;;;29.20;50.60;97610.44;10387154;28;20551;-51
2023/06/24 08:48:39;;;;;;;15.70;13.57;;;;;;;29.31;48.85;97607.78;10388328;28;20111;-52
2023/06/24 08:53:41;;;;;;;15.52;12.07;;;;;;;29.58;46.61;97607.41;10396875;28;20080;-49
2023/06/24 08:58:40;;;;;;;13.75;12.35;;;;;;;29.55;46.80;97590.75;10370377;28;20573;-51
2023/06/24 09:03:39;;;;;;;12.93;11.68;;;;;;;29.66;47.03;97580.03;10391787;28;20115;-52
2023/06/24 09:08:39;;;;;;;12.95;10.85;;;;;;;29.88;44.45;97596.06;10377195;28;20112;-51
2023/06/24 09:13:38;;;;;;;14.20;11.93;;;;;;;30.03;46.45;97593.09;10381069;28;20124;-49
2023/06/24 09:18:37;;;;;;;17.55;11.38;;;;;;;30.17;46.27;97584.75;10367761;28;20563;-47
2023/06/24 09:23:39;;;;;;;12.88;11.48;;;;;;;30.00;45.81;97570.13;10397414;28;20111;-49
2023/06/24 09:28:38;;;;;;;14.63;11.63;;;;;;;30.16;45.57;97585.72;10397963;28;20060;-51
2023/06/24 09:33:39;;;;;;;14.45;11.23;;;;;;;30.06;45.47;97585.63;10396939;28;20028;-51
2023/06/24 09:38:40;;;;;;;13.95;12.35;;;;;;;30.32;45.84;97585.28;10395969;28;20120;-50
2023/06/24 09:43:42;;;;;;;12.98;11.50;;;;;;;30.31;44.72;97579.09;10398401;28;20119;-52
2023/06/24 09:48:42;;;;;;;13.63;10.95;;;;;;;30.57;44.13;97594.78;10385870;28;20131;-51
2023/06/24 09:53:43;;;;;;;11.98;10.75;;;;;;;30.94;44.69;97597.00;10387036;28;20123;-52
2023/06/24 09:58:44;;;;;;;12.77;11.30;;;;;;;31.29;44.47;97596.59;10375612;28;20509;-52
2023/06/24 10:03:43;;;;;;;13.30;11.23;;;;;;;31.59;43.50;97589.50;10381673;28;20123;-52
2023/06/24 10:08:42;;;;;;;13.60;11.52;;;;;;;31.73;42.06;97586.44;10372400;28;20051;-52
2023/06/24 10:13:41;;;;;;;11.93;10.57;;;;;;;31.17;43.57;97595.84;10369285;28;20516;-50
2023/06/24 10:18:41;;;;;;;14.05;10.88;;;;;;;31.37;43.16;97590.56;10387151;28;20511;-51
2023/06/24 10:23:43;;;;;;;11.20;10.10;;;;;;;31.20;41.78;97585.84;10370761;28;20119;-52
2023/06/24 10:29:07;;;;;;;12.25;10.63;;;;;;;31.02;42.45;97574.91;10390775;28;20568;-52
2023/06/24 10:34:29;;;;;;;12.05;10.75;;;;;;;31.06;42.50;97568.31;10367586;28;20565;-48
2023/06/24 10:39:45;;;;;;;12.90;9.98;;;;;;;30.85;41.85;97539.69;10402699;28;20156;-51
2023/06/24 10:44:46;;;;;;;13.32;9.88;;;;;;;31.11;41.18;97547.28;10392847;28;20503;-49
2023/06/24 10:49:45;;;;;;;11.18;9.38;;;;;;;31.04;39.69;97527.38;10393543;28;20476;-48
2023/06/24 10:54:44;;;;;;;10.65;9.32;;;;;;;30.94;40.65;97524.63;10377884;28;20071;-50
2023/06/24 10:59:48;;;;;;;10.95;9.73;;;;;;;31.18;43.17;97518.97;10376623;28;20017;-51
2023/06/24 11:04:49;;;;;;;11.95;9.48;;;;;;;31.58;41.88;97505.50;10394030;28;20112;-51
2023/06/24 11:10:15;;;;;;;10.35;9.25;;;;;;;31.33;40.78;97504.16;10396620;28;20542;-49
2023/06/24 11:15:14;;;;;;;10.23;8.85;;;;;;;31.50;41.10;97505.38;10393465;28;20090;-51
2023/06/24 11:20:13;;;;;;;11.30;9.38;;;;;;;31.80;41.39;97500.84;10393355;28;20091;-51
2023/06/24 11:25:16;;;;;;;12.13;9.93;;;;;;;31.84;41.19;97493.38;10387146;28;20068;-50
2023/06/24 11:30:16;;;;;;;12.10;9.73;;;;;;;32.11;40.49;97496.22;10391456;28;20067;-50
2023/06/24 11:35:16;;;;;;;11.27;9.48;;;;;;;32.21;40.14;97501.56;10387799;28;20111;-50
2023/06/24 11:40:19;;;;;;;10.68;9.23;;;;;;;32.34;39.44;97494.06;10390444;28;20120;-50
2023/06/24 11:45:21;;;;;;;10.60;9.15;;;;;;;32.14;38.44;97490.56;10397560;28;20120;-52
2023/06/24 11:50:27;;;;;;;10.55;9.23;;;;;;;32.39;38.49;97505.22;10390519;28;20143;-49
2023/06/24 11:55:27;;;;;;;10.98;9.18;;;;;;;32.41;37.91;97513.13;10399494;28;20123;-52
2023/06/24 12:00:27;;;;;;;10.52;9.43;;;;;;;32.09;38.49;97502.72;10379148;28;20107;-52
2023/06/24 12:05:28;;;;;;;11.40;8.63;;;;;;;32.00;37.52;97478.41;10384305;28;20144;-51
2023/06/24 12:10:28;;;;;;;11.10;8.98;;;;;;;31.74;37.56;97488.03;10389975;28;20155;-49
2023/06/24 12:15:28;;;;;;;8.68;7.78;;;;;;;31.96;36.25;97481.50;10401769;28;20079;-52
2023/06/24 12:20:29;;;;;;;10.98;8.57;;;;;;;32.13;36.96;97453.13;10400031;28;20076;-52
2023/06/24 12:25:28;;;;;;;9.40;8.35;;;;;;;32.11;37.67;97469.38;10402830;28;20075;-51
2023/06/24 12:30:28;;;;;;;9.75;8.38;;;;;;;32.06;38.99;97470.78;10400434;28;20103;-50
2023/06/24 12:35:27;;;;;;;9.13;8.23;;;;;;;31.98;40.11;97453.53;10385277;28;20419;-50
2023/06/24 12:40:26;;;;;;;11.25;8.60;;;;;;;32.07;38.33;97461.75;10386749;28;20561;-51
2023/06/24 12:45:24;;;;;;;8.90;7.88;;;;;;;31.85;37.85;97469.09;10376774;28;20402;-51
2023/06/24 12:50:23;;;;;;;8.90;7.97;;;;;;;32.00;37.11;97481.09;10400398;28;20099;-49
2023/06/24 12:55:22;;;;;;;9.20;7.88;;;;;;;32.22;37.92;97487.16;10398110;28;20108;-48
2023/06/24 13:00:22;;;;;;;9.38;8.10;;;;;;;32.41;38.36;97497.00;10389368;28;20116;-51
2023/06/24 13:05:22;;;;;;;11.82;8.00;;;;;;;32.22;39.07;97492.53;10401251;28;20481;-50
2023/06/24 13:10:20;;;;;;;9.60;8.60;;;;;;;32.42;38.79;97475.38;10391588;28;20063;-51
2023/06/24 13:15:19;;;;;;;9.95;8.95;;;;;;;32.42;38.70;97467.31;10394036;28;20044;-50
2023/06/24 13:20:18;;;;;;;11.15;10.05;;;;;;;32.56;39.71;97465.16;10396747;28;20060;-50
2023/06/24 13:25:17;;;;;;;11.63;9.95;;;;;;;32.65;40.52;97472.38;10398270;28;20024;-51
2023/06/24 13:30:16;;;;;;;11.57;9.30;;;;;;;32.24;40.61;97458.31;10396561;28;20108;-53
2023/06/24 13:35:15;;;;;;;13.32;9.75;;;;;;;31.87;41.82;97472.47;10396564;28;20495;-51
2023/06/24 13:40:14;;;;;;;11.15;10.00;;;;;;;31.41;41.77;97491.94;10397662;28;20025;-49
2023/06/24 13:45:13;;;;;;;15.00;11.13;;;;;;;31.26;42.51;97510.22;10396795;28;20467;-51
2023/06/24 13:50:12;;;;;;;10.88;9.77;;;;;;;31.33;42.66;97524.78;10378189;28;20020;-48
2023/06/24 13:55:11;;;;;;;13.43;10.48;;;;;;;31.24;42.60;97528.28;10378276;28;20140;-51
2023/06/24 14:00:11;;;;;;;11.38;9.90;;;;;;;31.14;42.24;97515.69;10389327;28;20048;-52
2023/06/24 14:05:10;;;;;;;11.40;10.15;;;;;;;31.08;42.19;97494.81;10394652;28;20127;-52
2023/06/24 14:10:09;;;;;;;10.77;9.73;;;;;;;31.05;42.98;97476.31;10394158;28;20032;-52
2023/06/24 14:15:09;;;;;;;11.80;9.65;;;;;;;31.06;43.90;97488.75;10377442;28;20112;-52
2023/06/24 14:20:09;;;;;;;17.48;10.50;;;;;;;31.08;45.45;97484.09;10377736;28;20131;-52
2023/06/24 14:25:08;;;;;;;11.57;10.20;;;;;;;30.94;47.44;97471.88;10378391;28;20055;-51
2023/06/24 14:30:07;;;;;;;13.90;10.40;;;;;;;31.06;48.25;97487.91;10376641;28;20498;-50
2023/06/24 14:35:07;;;;;;;18.23;14.73;;;;;;;31.08;48.57;97478.72;10377729;28;20064;-50
2023/06/24 14:40:07;;;;;;;19.05;12.57;;;;;;;30.85;47.82;97453.94;10376530;28;20535;-53
2023/06/24 14:45:07;;;;;;;14.27;12.00;;;;;;;30.39;50.22;97431.16;10370364;28;20095;-50
2023/06/24 14:50:06;;;;;;;19.00;11.65;;;;;;;30.10;51.57;97450.59;10394914;28;20069;-51
2023/06/24 14:55:06;;;;;;;24.35;13.55;;;;;;;30.14;53.47;97491.34;10396045;28;20068;-50
2023/06/24 15:00:08;;;;;;;15.38;11.55;;;;;;;30.08;54.32;97518.63;10376540;28;20103;-52
2023/06/24 15:05:08;;;;;;;16.00;11.15;;;;;;;29.89;54.95;97533.53;10376052;28;20075;-51
2023/06/24 15:10:07;;;;;;;14.63;11.93;;;;;;;29.76;54.98;97524.81;10387918;28;20108;-49
2023/06/24 15:15:06;;;;;;;31.60;28.27;;;;;;;29.61;54.37;97534.09;10378238;28;20123;-51
2023/06/24 15:20:09;;;;;;;38.03;34.00;;;;;;;29.34;54.02;97523.84;10380691;28;20084;-52
2023/06/24 15:25:08;;;;;;;18.55;16.55;;;;;;;29.21;54.13;97507.94;10384509;28;20551;-49
2023/06/24 15:30:07;;;;;;;15.23;13.35;;;;;;;29.07;54.37;97496.53;10384348;28;20076;-50
2023/06/24 15:35:07;;;;;;;16.15;12.77;;;;;;;28.93;54.54;97493.28;10383392;28;20483;-51
2023/06/24 15:40:06;;;;;;;14.75;12.50;;;;;;;28.65;55.26;97482.91;10383175;28;20131;-52
2023/06/24 15:45:06;;;;;;;18.95;15.00;;;;;;;28.37;56.67;97486.91;10384125;28;20084;-51
2023/06/24 15:50:06;;;;;;;20.05;15.65;;;;;;;28.09;57.12;97466.84;10384674;28;20075;-52
2023/06/24 15:55:05;;;;;;;15.18;12.77;;;;;;;27.92;57.01;97483.28;10383339;28;20579;-53
2023/06/24 16:00:05;;;;;;;14.23;12.68;;;;;;;27.74;56.57;97496.16;10405572;28;20472;-52
2023/06/24 16:05:07;;;;;;;14.57;12.25;;;;;;;27.54;56.75;97498.53;10398604;28;20169;-50
2023/06/24 16:10:06;;;;;;;16.75;12.45;;;;;;;27.44;56.57;97501.94;10383763;28;20068;-51
2023/06/24 16:15:06;;;;;;;22.40;19.27;;;;;;;27.36;55.90;97500.69;10399706;28;20131;-52
2023/06/24 16:20:06;;;;;;;46.65;41.75;;;;;;;27.37;55.76;97507.69;10408867;28;20135;-51
2023/06/24 16:25:06;;;;;;;38.03;34.55;;;;;;;27.38;56.12;97490.78;10407502;28;20487;-52
2023/06/24 16:30:05;;;;;;;18.48;15.50;;;;;;;27.20;56.62;97481.47;10372269;28;20131;-49
2023/06/24 16:35:07;;;;;;;20.48;13.90;;;;;;;27.16;56.53;97499.47;10372695;28;20555;-51
2023/06/24 16:40:07;;;;;;;16.40;12.30;;;;;;;27.06;57.25;97517.09;10370802;28;20164;-53
2023/06/24 16:45:06;;;;;;;15.70;12.13;;;;;;;26.93;57.62;97522.44;10372240;28;20068;-51
2023/06/24 16:50:05;;;;;;;17.38;12.38;;;;;;;26.86;57.95;97513.19;10385013;28;20060;-50
2023/06/24 16:55:05;;;;;;;20.35;13.35;;;;;;;26.76;58.03;97515.59;10371261;28;20464;-48
2023/06/24 17:00:04;;;;;;;14.82;13.18;;;;;;;26.82;58.19;97522.31;10396273;28;20115;-51
2023/06/24 17:05:04;;;;;;;15.35;12.73;;;;;;;26.77;58.92;97519.13;10406916;28;20070;-52
2023/06/24 17:10:03;;;;;;;16.08;12.63;;;;;;;26.52;60.10;97549.28;10392106;28;20083;-51
2023/06/24 17:15:02;;;;;;;19.10;14.30;;;;;;;26.14;65.66;97542.06;10385670;28;20056;-51
2023/06/24 17:20:02;;;;;;;19.33;14.38;;;;;;;26.11;65.19;97540.47;10371226;28;20465;-49
2023/06/24 17:25:01;;;;;;;18.98;15.70;;;;;;;26.10;65.43;97552.06;10400891;28;20080;-51
2023/06/24 17:30:00;;;;;;;19.50;14.50;;;;;;;26.06;66.07;97529.28;10401675;28;20031;-50
2023/06/24 17:34:59;;;;;;;20.52;14.65;;;;;;;26.16;65.45;97553.47;10382116;28;20111;-50
2023/06/24 17:39:58;;;;;;;19.75;13.95;;;;;;;26.19;66.10;97557.72;10379813;28;20507;-52
2023/06/24 17:44:57;;;;;;;18.38;15.27;;;;;;;26.16;66.67;97567.63;10382278;28;20505;-49
2023/06/24 17:49:56;;;;;;;16.98;14.63;;;;;;;26.02;67.55;97586.31;10382360;28;20052;-49
2023/06/24 17:54:55;;;;;;;19.77;14.50;;;;;;;25.80;68.28;97559.41;10379983;28;20645;-52
2023/06/24 17:59:54;;;;;;;18.75;14.20;;;;;;;25.83;67.71;97585.78;10389843;28;20072;-52
2023/06/24 18:04:53;;;;;;;21.67;15.05;;;;;;;25.73;67.30;97586.41;10400275;28;20467;-50
2023/06/24 18:09:52;;;;;;;17.35;13.57;;;;;;;25.68;67.51;97580.53;10396621;28;20041;-53
2023/06/24 18:14:51;;;;;;;16.95;13.68;;;;;;;25.54;67.60;97569.94;10370964;28;20032;-52
2023/06/24 18:19:50;;;;;;;15.43;13.82;;;;;;;25.45;68.21;97567.84;10389784;28;20131;-49
2023/06/24 18:24:49;;;;;;;17.50;15.25;;;;;;;25.29;68.96;97529.00;10375403;28;20120;-52
2023/06/24 18:29:48;;;;;;;17.45;15.40;;;;;;;25.36;69.58;97544.53;10394333;28;20037;-49
2023/06/24 18:34:47;;;;;;;19.90;16.00;;;;;;;25.34;70.75;97549.97;10369902;28;20048;-51
2023/06/24 18:39:46;;;;;;;19.33;17.10;;;;;;;25.30;71.48;97567.88;10376993;28;20112;-51
2023/06/24 18:44:45;;;;;;;20.35;17.15;;;;;;;25.26;72.18;97571.69;10398030;28;20045;-51
2023/06/24 18:49:44;;;;;;;20.27;16.88;;;;;;;25.14;72.64;97551.22;10395734;28;20107;-51
2023/06/24 18:54:45;;;;;;;21.48;17.05;;;;;;;25.01;72.98;97545.84;10402533;28;20028;-50
2023/06/24 18:59:44;;;;;;;23.35;18.02;;;;;;;25.09;73.83;97571.91;10386500;28;20609;-51
2023/06/24 19:04:43;;;;;;;24.40;19.08;;;;;;;25.00;74.49;97573.31;10385379;28;20127;-50
2023/06/24 19:09:42;;;;;;;24.23;19.30;;;;;;;24.92;74.84;97580.94;10395043;28;20054;-51
2023/06/24 19:14:41;;;;;;;24.88;19.08;;;;;;;24.61;75.18;97527.03;10384687;28;20039;-50
2023/06/24 19:19:40;;;;;;;23.38;19.48;;;;;;;24.85;75.32;97577.75;10386198;28;20499;-48
2023/06/24 19:24:39;;;;;;;20.23;18.13;;;;;;;24.80;75.90;97566.59;10386270;28;20439;-52
2023/06/24 19:29:37;;;;;;;24.38;18.90;;;;;;;24.72;76.56;97560.03;10401488;28;20503;-49
2023/06/24 19:34:36;;;;;;;22.90;18.65;;;;;;;24.75;77.34;97555.38;10384045;28;20132;-51
2023/06/24 19:39:35;;;;;;;25.40;18.83;;;;;;;24.75;78.23;97550.06;10381984;28;20033;-51
2023/06/24 19:44:34;;;;;;;26.33;19.38;;;;;;;24.77;79.07;97569.41;10400789;28;20040;-52
2023/06/24 19:49:33;;;;;;;20.95;16.30;;;;;;;24.33;81.07;97567.66;10400504;28;20048;-52
2023/06/24 19:54:32;;;;;;;20.30;16.45;;;;;;;24.00;82.32;97573.97;10399973;28;20043;-50
2023/06/24 19:59:31;;;;;;;21.48;17.00;;;;;;;23.66;84.71;97601.56;10378336;28;20171;-49
2023/06/24 20:04:30;;;;;;;16.45;14.70;;;;;;;22.84;86.67;97646.63;10383528;28;20073;-51
2023/06/24 20:09:29;;;;;;;15.50;11.50;;;;;;;22.27;84.83;97662.69;10396893;28;20031;-50
2023/06/24 20:14:28;;;;;;;16.25;7.82;;;;;;;21.46;85.23;97692.03;10382248;28;20538;-49
2023/06/24 20:19:27;;;;;;;10.57;7.15;;;;;;;20.76;86.74;97734.69;10385563;28;20132;-52
2023/06/24 20:24:26;;;;;;;8.43;4.32;;;;;;;20.24;85.09;97799.16;10399253;28;20040;-49
2023/06/24 20:29:27;;;;;;;13.20;4.82;;;;;;;20.46;83.64;97816.78;10402493;28;20064;-51
2023/06/24 20:34:26;;;;;;;9.27;4.70;;;;;;;20.54;84.40;97843.69;10404260;28;20064;-51
2023/06/24 20:39:26;;;;;;;24.45;6.03;;;;;;;19.55;97.31;97816.66;10402383;28;20390;-51
2023/06/24 20:44:25;;;;;;;34.92;8.93;;;;;;;18.92;100.00;97805.69;10400683;28;20095;-50
2023/06/24 20:49:24;;;;;;;27.10;9.30;;;;;;;18.88;100.00;97896.97;10402704;28;20087;-50
2023/06/24 20:54:24;;;;;;;15.25;7.28;;;;;;;18.90;100.00;97918.84;10386514;28;20397;-50
2023/06/24 20:59:23;;;;;;;18.45;7.03;;;;;;;18.71;100.00;97880.88;10405037;28;20072;-48
2023/06/24 21:04:22;;;;;;;26.52;8.40;;;;;;;18.80;100.00;97891.94;10401835;28;20075;-50
2023/06/24 21:09:21;;;;;;;24.70;8.75;;;;;;;18.78;100.00;97908.69;10391274;28;20079;-48
2023/06/24 21:14:20;;;;;;;13.52;7.20;;;;;;;18.74;100.00;97876.38;10384614;28;20040;-48
2023/06/24 21:19:19;;;;;;;14.98;8.07;;;;;;;18.52;100.00;97852.50;10385532;28;20600;-50
2023/06/24 21:24:18;;;;;;;16.45;7.75;;;;;;;18.38;100.00;97854.69;10383525;28;20038;-48
2023/06/24 21:29:17;;;;;;;16.10;8.20;;;;;;;18.48;100.00;97877.19;10383167;28;20080;-50
2023/06/24 21:34:16;;;;;;;15.48;8.52;;;;;;;18.62;100.00;97863.59;10371705;28;20043;-49
2023/06/24 21:39:15;;;;;;;16.40;8.85;;;;;;;18.71;100.00;97873.84;10392141;28;20128;-50
2023/06/24 21:44:14;;;;;;;18.63;8.68;;;;;;;18.76;100.00;97855.28;10392872;28;20043;-51
2023/06/24 21:49:13;;;;;;;18.95;9.45;;;;;;;18.83;100.00;97843.69;10383338;28;20483;-51
2023/06/24 21:54:12;;;;;;;17.02;9.27;;;;;;;18.75;100.00;97836.03;10384621;28;20068;-49
2023/06/24 21:59:11;;;;;;;20.10;10.15;;;;;;;18.71;100.00;97812.53;10370335;28;20123;-50
2023/06/24 22:04:10;;;;;;;19.85;9.57;;;;;;;18.82;100.00;97810.41;10365392;28;20045;-48
2023/06/24 22:09:08;;;;;;;18.45;10.05;;;;;;;18.81;100.00;97787.66;10372897;28;20046;-50
2023/06/24 22:14:07;;;;;;;20.98;10.57;;;;;;;18.81;100.00;97792.91;10365445;28;20108;-50
2023/06/24 22:19:06;;;;;;;17.80;10.13;;;;;;;18.87;100.00;97786.59;10403430;28;20063;-50
2023/06/24 22:24:05;;;;;;;16.67;9.73;;;;;;;18.92;100.00;97787.28;10403348;28;20035;-51
2023/06/24 22:29:04;;;;;;;17.95;9.32;;;;;;;18.99;100.00;97792.31;10362699;28;20060;-48
2023/06/24 22:34:03;;;;;;;17.20;9.13;;;;;;;18.92;100.00;97787.28;10405848;28;20039;-51
2023/06/24 22:39:02;;;;;;;19.70;9.40;;;;;;;18.80;100.00;97775.41;10367881;28;20029;-49
2023/06/24 22:44:01;;;;;;;15.10;8.75;;;;;;;18.77;100.00;97767.63;10405267;28;20474;-48